POD weather

Podor Airport
Podor, Saint-Louis Region, Senegal

Public forecast

Using degrees Celsius for public forecast. Weather courtesy of forecast.io.

METAR (pilot weather report)

Retrieved 2019/07/17 19:00 UTC (40 minutes ago):

GOSP 171900Z 24002KT CAVOK 37/22 Q1011

TAF (pilot weather forecast)

Closest forecast is Saint Louis Airport, 94.2 nm (174.4 km) WSW. Retrieved 2019/07/17 18:00 UTC (2 hours ago):

TAF GOGS 171721Z 1718/1818 23008KT 9999 SCT013= TAF GOSS 171721Z 1718/1818 28008KT 9999 SCT013